Time;durP1;ratioP1;P1;durP2;ratioP2;P2;SDS_P1;SDS_P2;PMS_P1;PMS_P2;Temp;Humidity;BMP_temperature;BMP_pressure;BME280_temperature;BME280_humidity;BME280_pressure;Samples;Min_cycle;Max_cycle;Signal;HPM_P1;HPM_P2
2023/07/06 00:01:02;;;;;;;8.88;5.82;;;12.60;99.90;;;;;;6102540;23;20028;-72
2023/07/06 00:03:31;;;;;;;7.72;4.82;;;12.50;99.90;;;;;;6104129;23;20046;-72
2023/07/06 00:05:57;;;;;;;8.27;5.45;;;12.50;99.90;;;;;;6126224;23;20026;-73
2023/07/06 00:08:22;;;;;;;8.27;5.68;;;12.50;99.90;;;;;;6104405;23;20108;-72
2023/07/06 00:10:51;;;;;;;12.48;5.38;;;12.50;99.90;;;;;;6078296;23;20021;-72
2023/07/06 00:13:20;;;;;;;8.43;5.97;;;12.50;99.90;;;;;;6129749;23;20089;-72
2023/07/06 00:15:48;;;;;;;11.48;6.18;;;12.50;99.90;;;;;;6130215;23;20022;-73
2023/07/06 00:18:15;;;;;;;12.88;6.45;;;12.50;99.90;;;;;;6126411;23;20049;-72
2023/07/06 00:20:41;;;;;;;10.10;5.97;;;12.40;99.90;;;;;;6130170;23;20058;-73
2023/07/06 00:23:09;;;;;;;10.15;6.45;;;12.50;99.90;;;;;;6128066;23;20045;-72
2023/07/06 00:25:41;;;;;;;14.32;7.20;;;12.40;99.90;;;;;;6130152;23;20026;-73
2023/07/06 00:28:11;;;;;;;9.25;6.45;;;12.50;99.90;;;;;;6127380;23;20127;-72
2023/07/06 00:33:08;;;;;;;11.13;7.55;;;12.40;99.90;;;;;;6128672;23;20448;-72
2023/07/06 00:35:34;;;;;;;12.93;7.53;;;12.30;99.90;;;;;;6125866;23;20053;-72
2023/07/06 00:38:02;;;;;;;12.95;8.07;;;12.40;99.90;;;;;;6104173;23;20025;-72
2023/07/06 00:40:32;;;;;;;10.73;7.70;;;12.30;99.90;;;;;;6102673;23;20021;-72
2023/07/06 00:42:59;;;;;;;14.07;7.90;;;12.30;99.90;;;;;;6128930;23;20014;-72
2023/07/06 00:45:25;;;;;;;9.43;7.40;;;12.30;99.90;;;;;;6129562;23;20026;-72
2023/07/06 00:47:56;;;;;;;10.85;7.50;;;12.30;99.90;;;;;;6079482;23;20069;-72
2023/07/06 00:50:25;;;;;;;10.27;8.13;;;12.30;99.90;;;;;;6130390;23;20425;-72
2023/07/06 00:52:58;;;;;;;12.68;8.68;;;12.30;99.90;;;;;;6128102;23;20050;-72
2023/07/06 00:55:30;;;;;;;13.63;8.40;;;12.20;99.90;;;;;;6106261;23;20022;-71
2023/07/06 00:58:07;;;;;;;11.15;8.45;;;12.20;99.90;;;;;;6104342;23;20064;-72
2023/07/06 01:00:36;;;;;;;10.82;8.68;;;12.20;99.90;;;;;;6104996;23;20093;-72
2023/07/06 01:03:02;;;;;;;12.23;8.68;;;12.20;99.90;;;;;;6129912;23;20022;-72
2023/07/06 01:05:30;;;;;;;10.32;8.55;;;12.20;99.90;;;;;;6127899;23;20017;-72
2023/07/06 01:08:04;;;;;;;12.23;8.90;;;12.20;99.90;;;;;;6131988;23;20014;-72
2023/07/06 01:10:31;;;;;;;11.75;9.18;;;12.20;99.90;;;;;;6127886;23;20018;-72
2023/07/06 01:13:00;;;;;;;15.32;9.48;;;12.20;99.90;;;;;;6129863;23;20021;-72
2023/07/06 01:15:29;;;;;;;12.38;8.60;;;12.20;99.90;;;;;;6105449;23;20022;-72
2023/07/06 01:18:07;;;;;;;10.25;8.43;;;12.20;99.90;;;;;;6128245;23;20022;-71
2023/07/06 01:20:42;;;;;;;11.85;8.27;;;12.20;99.90;;;;;;6105172;23;20036;-72
2023/07/06 01:23:55;;;;;;;11.40;9.15;;;12.20;99.90;;;;;;6129273;23;20037;-72
2023/07/06 01:26:37;;;;;;;13.70;9.07;;;12.20;99.90;;;;;;6104189;23;20081;-72
2023/07/06 01:29:29;;;;;;;11.20;9.20;;;12.20;99.90;;;;;;6129968;23;20101;-72
2023/07/06 01:31:59;;;;;;;10.15;8.10;;;12.10;99.90;;;;;;6129577;23;20026;-72
2023/07/06 01:34:44;;;;;;;13.02;9.15;;;12.10;99.90;;;;;;6129510;23;20018;-72
2023/07/06 01:37:24;;;;;;;11.18;8.57;;;12.10;99.90;;;;;;6129773;23;20030;-72
2023/07/06 01:39:51;;;;;;;12.70;8.95;;;12.10;99.90;;;;;;6129406;23;20099;-72
2023/07/06 01:42:29;;;;;;;10.75;8.68;;;12.10;99.90;;;;;;6105810;23;20024;-72
2023/07/06 01:45:03;;;;;;;13.02;9.48;;;12.10;99.90;;;;;;6129273;23;20749;-72
2023/07/06 01:47:31;;;;;;;13.80;9.20;;;12.10;99.90;;;;;;6128644;23;20022;-72
2023/07/06 01:50:01;;;;;;;11.18;9.00;;;12.10;99.90;;;;;;6128836;23;20029;-72
2023/07/06 01:52:54;;;;;;;12.05;8.30;;;12.10;99.90;;;;;;6127537;23;20025;-72
2023/07/06 01:55:22;;;;;;;10.13;7.82;;;12.10;99.90;;;;;;6129740;23;20017;-72
2023/07/06 01:58:17;;;;;;;10.65;8.63;;;12.10;99.90;;;;;;6127642;23;20085;-73
2023/07/06 02:00:49;;;;;;;12.20;8.85;;;12.10;99.90;;;;;;6129804;23;20026;-72
2023/07/06 02:03:16;;;;;;;9.10;7.60;;;12.10;99.90;;;;;;6105093;23;20092;-72
2023/07/06 02:05:43;;;;;;;10.77;7.95;;;12.10;99.90;;;;;;6127200;23;20074;-72
2023/07/06 02:08:10;;;;;;;8.77;7.32;;;12.20;99.90;;;;;;6131309;23;20077;-72
2023/07/06 02:10:36;;;;;;;9.45;7.63;;;12.20;99.90;;;;;;6102841;23;20028;-72
2023/07/06 02:13:03;;;;;;;9.95;7.65;;;12.20;99.90;;;;;;6131072;23;20182;-72
2023/07/06 02:15:30;;;;;;;10.15;8.40;;;12.20;99.90;;;;;;6128782;23;20141;-72
2023/07/06 02:17:56;;;;;;;9.65;7.65;;;12.20;99.90;;;;;;6129268;23;20134;-72
2023/07/06 02:20:23;;;;;;;9.38;8.23;;;12.20;99.90;;;;;;6104633;23;20026;-73
2023/07/06 02:22:49;;;;;;;9.80;7.72;;;12.20;99.90;;;;;;6102897;23;20486;-72
2023/07/06 02:25:15;;;;;;;13.02;7.90;;;12.20;99.90;;;;;;6129359;23;20018;-72
2023/07/06 02:27:41;;;;;;;11.50;7.57;;;12.20;99.90;;;;;;6129000;23;20029;-73
2023/07/06 02:30:07;;;;;;;9.50;7.55;;;12.20;99.90;;;;;;6104774;23;20347;-73
2023/07/06 02:32:34;;;;;;;13.35;7.53;;;12.20;99.90;;;;;;6128157;23;20077;-72
2023/07/06 02:35:02;;;;;;;9.27;7.65;;;12.10;99.90;;;;;;6129246;23;20022;-72
2023/07/06 02:37:28;;;;;;;9.70;7.57;;;12.20;99.90;;;;;;6105161;23;20029;-72
2023/07/06 02:39:54;;;;;;;9.25;7.57;;;12.10;99.90;;;;;;6078194;23;20028;-72
2023/07/06 02:42:21;;;;;;;10.73;8.27;;;12.10;99.90;;;;;;6080573;23;20110;-73
2023/07/06 02:44:47;;;;;;;12.10;8.20;;;12.10;99.90;;;;;;6054980;23;20045;-73
2023/07/06 02:47:13;;;;;;;9.48;8.10;;;12.10;99.90;;;;;;6080461;23;20530;-72
2023/07/06 02:49:39;;;;;;;10.48;8.43;;;12.10;99.90;;;;;;6079226;23;20025;-72
2023/07/06 02:52:05;;;;;;;13.30;9.07;;;12.10;99.90;;;;;;6055542;23;20029;-72
2023/07/06 02:54:32;;;;;;;10.43;8.70;;;12.10;99.90;;;;;;6080932;23;20024;-72
2023/07/06 02:57:00;;;;;;;10.75;8.43;;;12.10;99.90;;;;;;6078353;23;20022;-73
2023/07/06 02:59:33;;;;;;;9.45;7.97;;;12.10;99.90;;;;;;6104322;23;20036;-72
2023/07/06 03:01:58;;;;;;;13.43;8.35;;;12.10;99.90;;;;;;6102265;23;20096;-72
2023/07/06 03:04:25;;;;;;;11.75;8.27;;;12.00;99.90;;;;;;6080415;23;20464;-72
2023/07/06 03:06:54;;;;;;;12.38;8.32;;;12.00;99.90;;;;;;6079841;23;20018;-72
2023/07/06 03:09:19;;;;;;;13.07;9.30;;;12.00;99.90;;;;;;6103035;23;20357;-72
2023/07/06 03:11:47;;;;;;;12.85;8.30;;;12.00;99.90;;;;;;6104711;23;20026;-72
2023/07/06 03:14:13;;;;;;;11.32;8.50;;;11.90;99.90;;;;;;6128867;23;20045;-72
2023/07/06 03:16:41;;;;;;;12.35;8.25;;;11.90;99.90;;;;;;6079917;23;20036;-71
2023/07/06 03:19:08;;;;;;;12.35;8.80;;;11.90;99.90;;;;;;6102343;23;20026;-72
2023/07/06 03:21:34;;;;;;;13.23;9.32;;;11.80;99.90;;;;;;6104274;23;20398;-72
2023/07/06 03:24:01;;;;;;;12.02;9.43;;;11.90;99.90;;;;;;6103680;23;20025;-72
2023/07/06 03:26:26;;;;;;;12.60;9.85;;;11.90;99.90;;;;;;6101287;23;20343;-72
2023/07/06 03:28:52;;;;;;;11.43;9.25;;;11.90;99.90;;;;;;6128977;23;20045;-72
2023/07/06 03:31:19;;;;;;;15.45;9.50;;;11.90;99.90;;;;;;6054511;23;20018;-72
2023/07/06 03:33:45;;;;;;;13.50;9.70;;;11.90;99.90;;;;;;6106643;23;20049;-72
2023/07/06 03:36:11;;;;;;;11.02;9.02;;;11.90;99.90;;;;;;6102151;23;20034;-72
2023/07/06 03:38:37;;;;;;;12.48;9.73;;;11.90;99.90;;;;;;6079901;23;20092;-72
2023/07/06 03:41:03;;;;;;;11.45;9.32;;;11.90;99.90;;;;;;6055809;23;20045;-72
2023/07/06 03:43:29;;;;;;;17.05;10.05;;;12.00;99.90;;;;;;6103233;23;20029;-73
2023/07/06 03:45:55;;;;;;;12.98;9.73;;;12.00;99.90;;;;;;6080897;23;20438;-72
2023/07/06 03:48:21;;;;;;;13.70;10.48;;;12.00;99.90;;;;;;6101954;23;20025;-73
2023/07/06 03:50:52;;;;;;;11.20;9.38;;;12.10;99.90;;;;;;6056529;23;20021;-73
2023/07/06 03:53:19;;;;;;;13.82;10.20;;;12.10;99.90;;;;;;6077856;23;20042;-73
2023/07/06 03:55:46;;;;;;;14.07;9.95;;;12.10;99.90;;;;;;6080207;23;20026;-72
2023/07/06 03:58:12;;;;;;;12.88;9.85;;;12.10;99.90;;;;;;6106924;23;20028;-73
2023/07/06 04:00:39;;;;;;;15.07;9.85;;;12.20;99.90;;;;;;6079199;23;20096;-72
2023/07/06 04:03:06;;;;;;;16.02;10.00;;;12.30;99.90;;;;;;6080719;23;20021;-73
2023/07/06 04:05:43;;;;;;;18.45;10.20;;;12.30;99.90;;;;;;6078965;23;20105;-73
2023/07/06 04:08:12;;;;;;;13.98;10.60;;;12.40;99.90;;;;;;6104513;23;20502;-73
2023/07/06 04:10:40;;;;;;;12.65;9.63;;;12.40;99.90;;;;;;6102354;23;20022;-72
2023/07/06 04:13:06;;;;;;;16.38;10.52;;;12.30;99.90;;;;;;6056353;23;20026;-73
2023/07/06 04:15:34;;;;;;;12.98;9.95;;;12.40;99.90;;;;;;6103677;23;20018;-73
2023/07/06 04:18:03;;;;;;;16.58;11.07;;;12.40;99.90;;;;;;6102141;23;20021;-73
2023/07/06 04:20:30;;;;;;;16.95;11.35;;;12.40;99.90;;;;;;6103806;23;20097;-72
2023/07/06 04:22:58;;;;;;;15.80;10.38;;;12.40;99.90;;;;;;6129331;23;20022;-73
2023/07/06 04:25:29;;;;;;;14.20;10.75;;;12.40;99.90;;;;;;6058326;23;20098;-73
2023/07/06 04:28:03;;;;;;;16.88;11.00;;;12.40;99.90;;;;;;6130686;23;20018;-73
2023/07/06 04:30:33;;;;;;;16.83;11.20;;;12.40;99.90;;;;;;6034812;23;20022;-72
2023/07/06 04:32:59;;;;;;;17.55;11.07;;;12.50;99.90;;;;;;6082650;23;20077;-72
2023/07/06 04:35:26;;;;;;;17.45;11.70;;;12.50;99.90;;;;;;6123180;23;20033;-72
2023/07/06 04:37:53;;;;;;;15.60;10.52;;;12.50;99.90;;;;;;6130458;23;20410;-72
2023/07/06 04:40:21;;;;;;;16.98;12.23;;;12.50;99.90;;;;;;6079469;23;20018;-71
2023/07/06 04:42:54;;;;;;;15.10;11.18;;;12.50;99.90;;;;;;6131734;23;20089;-72
2023/07/06 04:45:21;;;;;;;11.90;9.93;;;12.60;99.90;;;;;;6131317;23;20052;-71
2023/07/06 04:47:48;;;;;;;15.15;11.23;;;12.60;99.90;;;;;;6130578;23;20022;-72
2023/07/06 04:50:22;;;;;;;17.27;11.38;;;12.60;99.90;;;;;;6105710;23;20032;-72
2023/07/06 04:52:53;;;;;;;15.15;10.25;;;12.60;99.90;;;;;;6102853;23;20523;-72
2023/07/06 04:55:23;;;;;;;15.27;11.23;;;12.60;99.90;;;;;;6131800;23;20029;-72
2023/07/06 04:57:54;;;;;;;17.52;11.60;;;12.70;99.90;;;;;;6127777;23;20044;-72
2023/07/06 05:00:25;;;;;;;18.10;11.75;;;12.70;99.90;;;;;;6129245;23;20065;-72
2023/07/06 05:03:03;;;;;;;16.80;10.75;;;12.70;99.90;;;;;;6131284;23;20021;-71
2023/07/06 05:05:32;;;;;;;16.10;10.75;;;12.70;99.90;;;;;;6127496;23;20028;-71
2023/07/06 05:07:58;;;;;;;16.55;10.32;;;12.80;99.90;;;;;;6129976;23;20033;-71
2023/07/06 05:10:25;;;;;;;15.90;10.65;;;12.80;99.90;;;;;;6127970;23;20041;-72
2023/07/06 05:12:52;;;;;;;20.65;11.75;;;12.80;99.90;;;;;;6131774;23;20037;-72
2023/07/06 05:15:18;;;;;;;16.73;11.65;;;12.80;99.90;;;;;;6104545;23;20018;-72
2023/07/06 05:17:44;;;;;;;19.77;11.57;;;12.90;99.90;;;;;;6130472;23;20022;-72
2023/07/06 05:20:14;;;;;;;18.92;11.02;;;12.90;99.90;;;;;;6129753;23;20104;-72
2023/07/06 05:22:47;;;;;;;16.75;10.68;;;13.00;99.90;;;;;;6128893;23;20037;-71
2023/07/06 05:25:13;;;;;;;17.65;11.57;;;13.00;99.90;;;;;;6129567;23;20081;-71
2023/07/06 05:27:39;;;;;;;17.83;11.18;;;13.10;99.90;;;;;;6127488;23;20029;-71
2023/07/06 05:30:05;;;;;;;17.23;11.68;;;13.10;99.90;;;;;;6129690;23;20124;-72
2023/07/06 05:32:31;;;;;;;14.95;10.88;;;13.10;99.90;;;;;;6128772;23;20021;-71
2023/07/06 05:34:57;;;;;;;17.63;11.60;;;13.20;99.90;;;;;;6103412;23;20018;-72
2023/07/06 05:37:23;;;;;;;18.65;11.02;;;13.20;99.90;;;;;;6127548;23;20025;-71
2023/07/06 05:39:49;;;;;;;20.17;10.95;;;13.30;99.90;;;;;;6102343;23;20037;-72
2023/07/06 05:42:15;;;;;;;17.00;10.73;;;13.40;99.90;;;;;;6127565;23;20026;-72
2023/07/06 05:44:41;;;;;;;17.13;10.90;;;13.40;99.90;;;;;;6102489;23;20022;-72
2023/07/06 05:47:10;;;;;;;16.98;11.13;;;13.60;99.90;;;;;;6103722;23;20040;-80
2023/07/06 05:49:36;;;;;;;16.55;11.35;;;13.70;99.90;;;;;;6078804;23;20077;-71
2023/07/06 05:52:03;;;;;;;17.25;11.75;;;13.80;99.90;;;;;;6127199;23;20022;-71
2023/07/06 05:54:29;;;;;;;18.35;12.27;;;13.90;99.90;;;;;;6103004;23;20066;-71
2023/07/06 05:56:56;;;;;;;15.68;11.38;;;14.00;99.90;;;;;;6078221;23;20061;-72
2023/07/06 05:59:24;;;;;;;18.65;11.23;;;14.10;99.90;;;;;;6129006;23;20080;-71
2023/07/06 06:01:51;;;;;;;16.75;10.95;;;14.20;99.90;;;;;;6102595;23;20030;-71
2023/07/06 06:04:17;;;;;;;22.77;14.60;;;14.30;99.90;;;;;;6127720;23;20389;-72
2023/07/06 06:06:52;;;;;;;24.35;18.80;;;14.40;99.90;;;;;;6128476;23;20025;-71
2023/07/06 06:09:18;;;;;;;18.95;11.30;;;14.60;99.90;;;;;;6127795;23;20474;-72
2023/07/06 06:11:44;;;;;;;17.27;11.32;;;14.70;99.90;;;;;;6102434;23;20018;-72
2023/07/06 06:14:10;;;;;;;17.25;11.35;;;14.90;99.90;;;;;;6126381;23;20472;-71
2023/07/06 06:16:36;;;;;;;18.83;11.55;;;15.00;99.90;;;;;;6127133;23;20053;-70
2023/07/06 06:19:03;;;;;;;23.77;12.07;;;15.10;99.90;;;;;;6127787;23;20025;-71
2023/07/06 06:21:30;;;;;;;21.55;11.35;;;15.20;99.90;;;;;;6102491;23;20020;-71
2023/07/06 06:24:02;;;;;;;44.95;14.32;;;15.30;99.90;;;;;;6126186;23;20028;-70
2023/07/06 06:26:29;;;;;;;18.70;10.40;;;15.50;99.90;;;;;;6079014;23;20157;-72
2023/07/06 06:28:59;;;;;;;18.63;10.25;;;15.60;99.90;;;;;;6103082;23;20022;-72
2023/07/06 06:31:25;;;;;;;20.55;10.90;;;15.70;99.90;;;;;;6103066;23;20025;-71
2023/07/06 06:33:51;;;;;;;18.25;10.02;;;15.80;99.90;;;;;;6102997;23;20018;-72
2023/07/06 06:36:18;;;;;;;20.52;10.35;;;15.90;99.90;;;;;;6043647;23;20041;-71
2023/07/06 06:38:44;;;;;;;16.65;9.60;;;15.90;99.90;;;;;;6097715;23;20029;-71
2023/07/06 06:41:11;;;;;;;16.17;10.13;;;16.10;99.90;;;;;;6094363;23;20053;-71
2023/07/06 06:43:41;;;;;;;16.30;9.93;;;16.10;99.90;;;;;;6069705;23;20345;-72
2023/07/06 06:46:12;;;;;;;19.00;9.85;;;16.20;99.90;;;;;;6045996;23;20029;-72
2023/07/06 06:48:39;;;;;;;18.75;10.75;;;16.30;99.90;;;;;;6093586;23;20037;-72
2023/07/06 06:51:08;;;;;;;16.80;10.00;;;16.50;99.90;;;;;;6095663;23;20384;-72
2023/07/06 06:53:34;;;;;;;14.18;9.10;;;16.60;99.90;;;;;;6094734;23;20018;-71
2023/07/06 06:56:04;;;;;;;17.92;11.05;;;16.80;99.90;;;;;;6118860;23;20026;-71
2023/07/06 06:58:30;;;;;;;16.75;9.95;;;16.90;99.90;;;;;;6070387;23;20030;-71
2023/07/06 07:01:05;;;;;;;22.42;9.70;;;17.00;99.90;;;;;;6068909;23;20136;-76
2023/07/06 07:03:31;;;;;;;19.30;9.68;;;17.10;99.90;;;;;;6093837;23;20562;-70
2023/07/06 07:06:11;;;;;;;14.13;9.07;;;17.20;99.90;;;;;;6092105;23;20078;-71
2023/07/06 07:08:49;;;;;;;11.77;9.00;;;17.30;99.90;;;;;;6094153;23;20639;-71
2023/07/06 07:11:20;;;;;;;19.52;8.77;;;17.30;99.90;;;;;;6094021;23;20057;-71
2023/07/06 07:13:47;;;;;;;15.23;8.88;;;17.40;99.90;;;;;;6093370;23;20028;-71
2023/07/06 07:16:14;;;;;;;13.40;8.90;;;17.50;99.90;;;;;;6069444;23;20029;-71
2023/07/06 07:18:42;;;;;;;14.57;7.97;;;17.70;99.90;;;;;;6092486;23;20037;-70
2023/07/06 07:21:09;;;;;;;13.93;7.72;;;17.70;99.90;;;;;;6094402;23;20026;-71
2023/07/06 07:23:53;;;;;;;12.38;7.22;;;17.80;99.90;;;;;;6093235;23;20049;-71
2023/07/06 07:26:21;;;;;;;15.10;7.93;;;17.90;99.90;;;;;;6069211;23;20021;-71
2023/07/06 07:28:48;;;;;;;14.77;8.18;;;18.00;99.90;;;;;;6120499;23;20021;-71
2023/07/06 07:31:17;;;;;;;13.13;7.93;;;18.10;99.90;;;;;;6093099;23;20591;-71
2023/07/06 07:33:44;;;;;;;15.90;9.13;;;18.10;99.90;;;;;;6093022;23;20030;-71
2023/07/06 07:36:12;;;;;;;17.92;11.30;;;18.20;99.90;;;;;;6117432;23;20444;-71
2023/07/06 07:38:38;;;;;;;17.55;9.13;;;18.20;99.90;;;;;;6094140;23;20022;-70
2023/07/06 07:41:06;;;;;;;14.48;8.20;;;18.30;99.90;;;;;;6069127;23;20022;-71
2023/07/06 07:43:34;;;;;;;12.75;7.50;;;18.30;99.90;;;;;;6093081;23;20104;-71
2023/07/06 07:46:03;;;;;;;14.38;7.63;;;18.40;99.90;;;;;;6069314;23;20026;-71
2023/07/06 07:48:33;;;;;;;17.17;8.50;;;18.50;99.90;;;;;;6068396;23;20033;-71
2023/07/06 07:51:02;;;;;;;14.90;7.72;;;18.60;99.90;;;;;;6069763;23;20018;-70
2023/07/06 07:53:33;;;;;;;15.15;7.85;;;18.60;99.90;;;;;;6069117;23;20448;-71
2023/07/06 07:55:59;;;;;;;12.50;6.67;;;18.70;99.90;;;;;;6119162;23;20025;-70
2023/07/06 07:58:28;;;;;;;13.23;7.13;;;18.80;99.90;;;;;;6069334;23;20261;-71
2023/07/06 08:00:56;;;;;;;10.82;6.75;;;18.90;99.90;;;;;;6093045;23;20080;-71
2023/07/06 08:03:23;;;;;;;10.48;7.78;;;19.00;99.90;;;;;;6119348;23;20557;-71
2023/07/06 08:05:55;;;;;;;14.55;7.97;;;19.10;99.90;;;;;;6067764;23;20053;-71
2023/07/06 08:08:22;;;;;;;9.23;6.30;;;19.10;99.90;;;;;;6045727;23;20594;-71
2023/07/06 08:10:49;;;;;;;11.68;6.90;;;19.10;99.90;;;;;;6045171;23;20022;-71
2023/07/06 08:13:17;;;;;;;14.20;8.68;;;19.20;99.90;;;;;;6093379;23;20022;-71
2023/07/06 08:15:44;;;;;;;12.50;8.52;;;19.30;99.90;;;;;;6093239;23;20049;-71
2023/07/06 08:18:11;;;;;;;12.98;8.07;;;19.30;99.90;;;;;;6092491;23;20049;-71
2023/07/06 08:20:39;;;;;;;9.20;6.88;;;19.40;99.90;;;;;;6069141;23;20030;-71
2023/07/06 08:23:10;;;;;;;13.65;7.60;;;19.40;99.90;;;;;;6118158;23;20022;-71
2023/07/06 08:25:40;;;;;;;10.50;7.53;;;19.50;99.90;;;;;;6119373;23;20028;-71
2023/07/06 08:28:12;;;;;;;9.05;5.70;;;19.70;99.90;;;;;;6092390;23;20069;-71
2023/07/06 08:30:40;;;;;;;;;;;19.80;99.90;;;;;;6093281;23;20025;-71
2023/07/06 08:33:07;;;;;;;11.27;6.80;;;19.90;99.90;;;;;;6093959;23;19921;-71
2023/07/06 08:35:33;;;;;;;10.90;7.13;;;19.90;99.90;;;;;;6110107;23;20069;-70
2023/07/06 08:38:04;;;;;;;10.85;6.50;;;19.90;99.90;;;;;;6118173;23;20032;-71
2023/07/06 08:40:31;;;;;;;8.88;6.45;;;20.00;99.90;;;;;;6117406;23;20049;-70
2023/07/06 08:42:59;;;;;;;11.77;6.03;;;20.20;99.90;;;;;;6094383;23;20026;-71
2023/07/06 08:45:37;;;;;;;8.13;4.93;;;20.20;99.90;;;;;;6117813;23;20025;-71
2023/07/06 08:48:02;;;;;;;8.13;5.03;;;20.20;99.90;;;;;;6117706;23;20022;-71
2023/07/06 08:50:33;;;;;;;8.70;5.40;;;20.20;99.90;;;;;;6118245;23;20099;-70
2023/07/06 08:53:00;;;;;;;10.60;6.05;;;20.20;99.90;;;;;;6117195;23;20053;-72
2023/07/06 08:55:30;;;;;;;8.45;5.20;;;20.40;99.90;;;;;;6117862;23;20018;-71
2023/07/06 08:57:56;;;;;;;9.13;5.50;;;20.50;99.90;;;;;;6093050;23;20235;-74
2023/07/06 09:00:27;;;;;;;11.88;5.13;;;20.60;99.90;;;;;;6093898;23;20025;-71
2023/07/06 09:02:55;;;;;;;7.40;4.82;;;20.60;99.90;;;;;;6117842;23;20033;-71
2023/07/06 09:05:22;;;;;;;7.55;4.63;;;20.40;99.90;;;;;;6092560;23;20505;-71
2023/07/06 09:07:49;;;;;;;8.82;4.85;;;20.40;99.90;;;;;;6120000;23;20014;-71
2023/07/06 09:10:20;;;;;;;10.05;5.05;;;20.40;99.90;;;;;;6120228;23;20025;-71
2023/07/06 09:12:46;;;;;;;;;;;20.20;99.90;;;;;;6120679;23;20074;-71
2023/07/06 09:15:23;;;;;;;5.20;3.55;;;19.90;99.90;;;;;;6094706;23;19977;-70
2023/07/06 09:17:50;;;;;;;8.68;4.68;;;19.70;99.90;;;;;;6120710;23;20022;-71
2023/07/06 09:20:18;;;;;;;9.48;4.88;;;19.70;99.90;;;;;;6095452;23;20030;-71
2023/07/06 09:22:46;;;;;;;7.63;4.65;;;19.80;99.90;;;;;;6119724;23;20078;-71
2023/07/06 09:25:25;;;;;;;8.93;5.45;;;19.90;99.90;;;;;;6120419;23;20026;-71
2023/07/06 09:27:51;;;;;;;6.65;4.78;;;19.80;99.90;;;;;;6101887;23;20029;-71
2023/07/06 09:30:30;;;;;;;6.53;4.30;;;19.70;99.90;;;;;;6115303;23;20026;-70
2023/07/06 09:33:06;;;;;;;7.55;3.53;;;19.60;99.90;;;;;;6118624;23;20083;-72
2023/07/06 09:35:35;;;;;;;5.95;3.50;;;19.40;99.90;;;;;;6120489;23;20026;-70
2023/07/06 09:38:03;;;;;;;3.58;3.00;;;19.30;99.90;;;;;;6095987;23;20029;-71
2023/07/06 09:40:30;;;;;;;6.35;3.33;;;19.20;99.90;;;;;;6096837;23;20237;-71
2023/07/06 09:42:56;;;;;;;5.18;3.22;;;19.10;99.90;;;;;;6125993;23;20018;-71
2023/07/06 09:45:29;;;;;;;4.13;3.08;;;19.00;99.90;;;;;;6071593;23;20078;-72
2023/07/06 09:48:03;;;;;;;5.93;3.17;;;19.00;99.90;;;;;;6095398;23;20045;-71
2023/07/06 09:50:39;;;;;;;5.80;2.90;;;18.90;99.90;;;;;;6095427;23;20069;-73
2023/07/06 09:53:11;;;;;;;4.55;3.45;;;19.00;99.90;;;;;;6071201;23;20025;-71
2023/07/06 09:55:36;;;;;;;5.88;2.85;;;19.00;99.90;;;;;;6122351;23;20029;-70
2023/07/06 09:58:02;;;;;;;4.55;2.83;;;19.10;99.90;;;;;;6095601;23;20022;-71
2023/07/06 10:00:46;;;;;;;4.78;2.72;;;19.30;99.90;;;;;;6094801;23;20045;-71
2023/07/06 10:03:27;;;;;;;6.20;2.97;;;19.50;99.90;;;;;;6121675;23;20092;-71
2023/07/06 10:06:00;;;;;;;7.25;2.90;;;19.50;99.90;;;;;;6122834;23;20025;-72
2023/07/06 10:08:48;;;;;;;4.28;2.75;;;19.50;99.90;;;;;;6101705;23;20022;-72
2023/07/06 10:11:28;;;;;;;3.35;2.38;;;19.40;99.90;;;;;;6102546;23;20037;-71
2023/07/06 10:13:58;;;;;;;4.30;2.22;;;19.60;99.90;;;;;;6101401;23;20522;-72
2023/07/06 10:16:45;;;;;;;4.85;2.33;;;19.80;99.90;;;;;;6102896;23;20049;-71
2023/07/06 10:19:27;;;;;;;4.20;2.13;;;19.80;99.90;;;;;;6126920;23;20428;-71
2023/07/06 10:22:04;;;;;;;;;;;19.70;99.90;;;;;;6034072;23;20020;-72
2023/07/06 10:24:55;;;;;;;3.97;2.30;;;19.60;99.90;;;;;;6128766;23;19928;-71
2023/07/06 10:27:35;;;;;;;6.13;2.17;;;19.50;99.90;;;;;;6101831;23;20491;-70
2023/07/06 10:30:09;;;;;;;3.88;1.90;;;19.50;99.90;;;;;;6102956;23;20026;-71
2023/07/06 10:32:42;;;;;;;3.35;1.90;;;19.50;99.90;;;;;;6078365;23;20025;-71
2023/07/06 10:35:28;;;;;;;2.53;2.10;;;19.40;99.90;;;;;;6114750;23;20033;-71
2023/07/06 10:37:54;;;;;;;4.28;2.20;;;19.40;99.90;;;;;;6127400;23;20057;-71
2023/07/06 10:40:25;;;;;;;2.72;2.35;;;19.50;99.90;;;;;;6102023;23;20092;-70
2023/07/06 10:43:14;;;;;;;4.87;2.90;;;19.70;99.90;;;;;;6127619;23;20017;-71
2023/07/06 10:45:52;;;;;;;5.75;2.72;;;19.80;99.90;;;;;;6108996;23;20037;-71
2023/07/06 10:48:34;;;;;;;3.60;2.60;;;19.90;99.90;;;;;;6126060;23;20097;-71
2023/07/06 10:51:26;;;;;;;7.68;3.47;;;20.00;99.90;;;;;;6128994;23;20057;-71
2023/07/06 10:54:17;;;;;;;4.03;3.13;;;20.30;99.90;;;;;;6102277;23;20456;-71
2023/07/06 10:57:04;;;;;;;5.40;2.33;;;20.70;99.90;;;;;;6125637;23;20030;-71
2023/07/06 10:59:48;;;;;;;5.60;2.00;;;21.00;99.90;;;;;;6127324;23;20116;-71
2023/07/06 11:02:24;;;;;;;3.53;2.00;;;21.20;99.90;;;;;;6101091;23;20444;-72
2023/07/06 11:04:57;;;;;;;4.85;2.78;;;21.40;99.90;;;;;;6126225;23;20112;-70
2023/07/06 11:07:52;;;;;;;4.30;2.60;;;21.60;99.90;;;;;;6126999;23;20030;-70
2023/07/06 11:10:42;;;;;;;3.55;2.70;;;21.70;99.90;;;;;;6101725;23;20037;-70
2023/07/06 11:13:08;;;;;;;8.65;3.28;;;21.50;99.90;;;;;;6126943;23;20022;-71
2023/07/06 11:15:48;;;;;;;9.75;3.17;;;21.30;99.90;;;;;;6102362;23;20014;-70
2023/07/06 11:18:27;;;;;;;4.65;2.70;;;21.00;99.90;;;;;;6125887;23;20022;-70
2023/07/06 11:21:02;;;;;;;5.65;2.67;;;20.80;99.90;;;;;;6128735;23;20026;-70
2023/07/06 11:23:47;;;;;;;4.13;2.55;;;20.70;99.90;;;;;;6101482;23;20037;-71
2023/07/06 11:26:32;;;;;;;4.18;2.60;;;20.60;99.90;;;;;;6102007;23;20025;-70
2023/07/06 11:28:58;;;;;;;3.40;2.30;;;20.50;99.90;;;;;;6126723;23;20026;-71
2023/07/06 11:31:47;;;;;;;3.63;2.50;;;20.30;99.90;;;;;;6077055;23;20021;-70
2023/07/06 11:34:32;;;;;;;4.97;2.53;;;20.50;99.90;;;;;;6127038;23;20021;-71
2023/07/06 11:37:12;;;;;;;7.28;2.58;;;20.80;99.90;;;;;;6128585;23;20030;-70
2023/07/06 11:39:50;;;;;;;4.07;2.50;;;20.80;99.90;;;;;;6101172;23;20077;-70
2023/07/06 11:42:31;;;;;;;3.72;2.30;;;20.70;99.90;;;;;;6128722;23;20025;-69
2023/07/06 11:45:01;;;;;;;;;;;20.60;99.90;;;;;;6126838;23;20057;-70
2023/07/06 11:47:42;;;;;;;4.38;2.20;;;20.50;99.90;;;;;;6128469;23;19960;-70
2023/07/06 11:50:14;;;;;;;5.18;1.88;;;20.60;99.90;;;;;;6126684;23;20053;-70
2023/07/06 11:52:57;;;;;;;3.05;1.85;;;20.80;99.90;;;;;;6076877;23;20098;-70
2023/07/06 11:55:34;;;;;;;3.05;2.03;;;21.10;99.90;;;;;;6127316;23;20018;-70
2023/07/06 11:58:21;;;;;;;2.47;1.95;;;21.40;99.90;;;;;;6126144;23;20442;-69
2023/07/06 12:00:54;;;;;;;5.07;2.70;;;21.80;99.90;;;;;;6127438;23;20098;-70
2023/07/06 12:03:26;;;;;;;6.45;2.20;;;22.00;99.90;;;;;;6126209;23;20036;-70
2023/07/06 12:06:01;;;;;;;6.35;2.13;;;22.30;99.90;;;;;;6125454;23;20033;-70
2023/07/06 12:08:28;;;;;;;4.50;2.00;;;22.50;99.90;;;;;;6127043;23;20029;-70
2023/07/06 12:11:00;;;;;;;3.67;1.80;;;22.50;99.90;;;;;;6127620;23;20124;-70
2023/07/06 12:13:28;;;;;;;2.05;1.58;;;22.50;99.90;;;;;;6125985;23;20360;-70
2023/07/06 12:16:07;;;;;;;4.68;1.98;;;22.30;99.90;;;;;;6102388;23;20022;-70
2023/07/06 12:18:34;;;;;;;3.15;1.85;;;22.00;99.90;;;;;;6103521;23;20077;-70
2023/07/06 12:21:01;;;;;;;2.45;1.48;;;21.80;99.90;;;;;;6126660;23;20022;-70
2023/07/06 12:23:27;;;;;;;4.57;1.50;;;21.70;99.90;;;;;;6101258;23;20021;-70
2023/07/06 12:25:54;;;;;;;1.70;1.48;;;21.60;99.90;;;;;;6102213;23;20457;-70
2023/07/06 12:28:20;;;;;;;3.33;1.77;;;21.60;99.90;;;;;;6126157;23;20022;-70
2023/07/06 12:30:49;;;;;;;3.20;1.65;;;21.80;99.90;;;;;;6125760;23;20018;-70
2023/07/06 12:33:16;;;;;;;2.78;1.30;;;22.10;99.90;;;;;;6126318;23;20033;-71
2023/07/06 12:35:43;;;;;;;1.73;1.40;;;22.30;99.90;;;;;;6101028;23;20022;-70
2023/07/06 12:38:19;;;;;;;2.13;1.50;;;22.50;99.90;;;;;;6102443;23;20053;-70
2023/07/06 12:40:47;;;;;;;2.03;1.38;;;22.80;98.00;;;;;;6125502;23;20030;-77
2023/07/06 12:43:30;;;;;;;1.98;1.30;;;23.00;99.60;;;;;;6078388;23;20033;-70
2023/07/06 12:45:56;;;;;;;2.45;1.42;;;22.80;83.90;;;;;;6128211;23;20077;-70
2023/07/06 12:48:25;;;;;;;2.60;1.45;;;22.90;92.70;;;;;;6127626;23;20540;-72
2023/07/06 12:50:54;;;;;;;2.00;1.50;;;22.90;91.00;;;;;;6080069;23;20097;-71
2023/07/06 12:53:29;;;;;;;2.28;1.40;;;22.90;90.60;;;;;;6127940;23;20048;-70
2023/07/06 12:56:16;;;;;;;3.85;1.60;;;22.90;90.50;;;;;;6130052;23;20079;-70
2023/07/06 12:59:01;;;;;;;3.22;1.50;;;22.80;89.40;;;;;;6131948;23;20028;-70
2023/07/06 13:01:34;;;;;;;2.92;1.70;;;22.80;96.70;;;;;;6131478;23;20096;-70